createdAt,value
2022-07-29T00:00:02.377Z,1.60
2022-07-29T00:02:33.225Z,1.50
2022-07-29T00:05:00.529Z,1.60
2022-07-29T00:07:27.631Z,1.50
2022-07-29T00:09:54.883Z,1.60
2022-07-29T00:12:25.560Z,1.70
2022-07-29T00:14:56.287Z,1.53
2022-07-29T00:17:24.872Z,2.00
2022-07-29T00:19:52.347Z,1.50
2022-07-29T00:22:20.576Z,1.88
2022-07-29T00:24:51.015Z,1.30
2022-07-29T00:27:19.177Z,1.40
2022-07-29T00:29:46.424Z,1.52
2022-07-29T00:32:13.633Z,1.90
2022-07-29T00:34:59.623Z,1.25
2022-07-29T00:37:26.859Z,1.55
2022-07-29T00:39:54.009Z,1.70
2022-07-29T00:42:21.351Z,1.88
2022-07-29T00:44:48.501Z,1.80
2022-07-29T00:47:15.837Z,1.60
2022-07-29T00:49:43.522Z,1.60
2022-07-29T00:52:12.507Z,1.85
2022-07-29T00:54:44.595Z,1.95
2022-07-29T00:57:13.210Z,2.00
2022-07-29T00:59:40.506Z,1.75
2022-07-29T01:02:07.809Z,1.77
2022-07-29T01:04:36.222Z,2.03
2022-07-29T01:07:04.091Z,1.90
2022-07-29T01:09:46.035Z,1.83
2022-07-29T01:12:25.608Z,2.47
2022-07-29T01:14:54.462Z,1.98
2022-07-29T01:17:33.832Z,1.70
2022-07-29T01:20:07.593Z,1.90
2022-07-29T01:22:40.420Z,1.63
2022-07-29T01:25:41.509Z,1.73
2022-07-29T01:28:14.006Z,2.10
2022-07-29T01:30:45.704Z,1.77
2022-07-29T01:33:36.577Z,2.15
2022-07-29T01:36:12.029Z,1.85
2022-07-29T01:38:42.527Z,2.10
2022-07-29T01:41:18.697Z,2.00
2022-07-29T01:43:57.483Z,2.17
2022-07-29T01:46:37.059Z,1.65
2022-07-29T01:49:15.214Z,2.67
2022-07-29T01:51:52.841Z,2.00
2022-07-29T01:54:21.673Z,1.95
2022-07-29T01:56:52.250Z,2.20
2022-07-29T01:59:21.619Z,2.65
2022-07-29T02:01:51.757Z,2.50
2022-07-29T02:04:26.631Z,1.80
2022-07-29T02:07:01.804Z,2.40
2022-07-29T02:09:30.558Z,2.20
2022-07-29T02:12:00.429Z,1.80
2022-07-29T02:14:29.684Z,2.03
2022-07-29T02:16:59.497Z,2.00
2022-07-29T02:19:28.910Z,2.80
2022-07-29T02:21:58.987Z,2.22
2022-07-29T02:24:27.584Z,2.47
2022-07-29T02:26:57.697Z,1.77
2022-07-29T02:29:27.546Z,2.00
2022-07-29T02:31:56.196Z,1.90
2022-07-29T02:34:24.528Z,1.70
2022-07-29T02:36:53.454Z,1.30
2022-07-29T02:39:22.578Z,1.63
2022-07-29T02:41:56.395Z,1.50
2022-07-29T02:44:31.282Z,2.00
2022-07-29T02:47:16.585Z,1.77
2022-07-29T02:50:09.542Z,1.92
2022-07-29T02:55:24.124Z,2.03
2022-07-29T02:58:30.010Z,1.75
2022-07-29T03:01:02.188Z,1.30
2022-07-29T03:03:33.475Z,1.20
2022-07-29T03:06:03.628Z,1.25
2022-07-29T03:08:32.821Z,1.25
2022-07-29T03:11:01.853Z,1.23
2022-07-29T03:13:30.668Z,1.00
2022-07-29T03:15:59.019Z,1.20
2022-07-29T03:18:27.059Z,1.30
2022-07-29T03:20:54.376Z,1.20
2022-07-29T03:23:25.100Z,0.90
2022-07-29T03:25:52.544Z,1.25
2022-07-29T03:28:20.654Z,1.20
2022-07-29T03:30:50.482Z,1.40
2022-07-29T03:33:18.137Z,1.00
2022-07-29T03:35:46.292Z,1.13
2022-07-29T03:38:13.470Z,1.05
2022-07-29T03:41:02.572Z,1.25
2022-07-29T03:43:33.162Z,1.25
2022-07-29T03:46:03.173Z,1.00
2022-07-29T03:48:34.025Z,1.30
2022-07-29T03:51:01.854Z,0.93
2022-07-29T03:53:29.663Z,1.27
2022-07-29T03:56:00.813Z,1.08
2022-07-29T03:58:29.077Z,1.10
2022-07-29T04:00:56.671Z,1.20
2022-07-29T04:03:24.327Z,1.40
2022-07-29T04:06:03.088Z,1.30
2022-07-29T04:08:30.212Z,1.00
2022-07-29T04:10:57.499Z,1.40
2022-07-29T04:13:24.700Z,1.20
2022-07-29T04:15:54.844Z,1.20
2022-07-29T04:18:22.231Z,1.10
2022-07-29T04:20:49.266Z,1.10
2022-07-29T04:23:16.625Z,1.20
2022-07-29T04:25:44.187Z,1.00
2022-07-29T04:28:11.545Z,1.40
2022-07-29T04:30:39.046Z,1.17
2022-07-29T04:33:08.137Z,0.95
2022-07-29T04:35:38.929Z,1.15
2022-07-29T04:38:17.358Z,0.95
2022-07-29T04:40:44.503Z,1.83
2022-07-29T04:43:11.975Z,1.30
2022-07-29T04:45:41.374Z,1.58
2022-07-29T04:48:08.706Z,1.10
2022-07-29T04:50:38.922Z,1.23
2022-07-29T04:53:06.078Z,1.83
2022-07-29T04:55:33.222Z,1.30
2022-07-29T04:58:00.478Z,1.27
2022-07-29T05:00:33.306Z,1.20
2022-07-29T05:03:01.156Z,1.92
2022-07-29T05:05:28.236Z,1.17
2022-07-29T05:07:56.319Z,1.20
2022-07-29T05:10:23.767Z,1.10
2022-07-29T05:12:50.834Z,1.20
2022-07-29T05:15:18.740Z,1.05
2022-07-29T05:17:46.065Z,1.05
2022-07-29T05:20:13.112Z,1.10
2022-07-29T05:22:40.232Z,1.20
2022-07-29T05:25:09.230Z,1.17
2022-07-29T05:27:38.084Z,0.98
2022-07-29T05:30:05.574Z,1.10
2022-07-29T05:32:32.933Z,1.00
2022-07-29T05:34:59.992Z,1.30
2022-07-29T05:37:27.120Z,0.95
2022-07-29T05:39:57.188Z,1.10
2022-07-29T05:42:26.972Z,1.02
2022-07-29T05:44:54.301Z,1.23
2022-07-29T05:47:21.434Z,1.10
2022-07-29T05:49:48.640Z,1.10
2022-07-29T05:52:16.461Z,1.00
2022-07-29T05:54:44.062Z,1.33
2022-07-29T05:57:22.525Z,1.20
2022-07-29T05:59:51.404Z,1.17
2022-07-29T06:02:18.704Z,1.20
2022-07-29T06:04:46.105Z,1.20
2022-07-29T06:07:13.511Z,1.40
2022-07-29T06:09:40.773Z,1.40
2022-07-29T06:12:07.938Z,1.15
2022-07-29T06:14:36.464Z,0.93
2022-07-29T06:17:03.718Z,1.48
2022-07-29T06:19:30.812Z,1.10
2022-07-29T06:21:58.015Z,1.10
2022-07-29T06:24:25.023Z,0.88
2022-07-29T06:26:52.032Z,1.02
2022-07-29T06:29:19.367Z,0.90
2022-07-29T06:31:46.474Z,1.30
2022-07-29T06:34:13.692Z,1.13
2022-07-29T06:36:41.288Z,1.42
2022-07-29T06:39:09.529Z,1.13
2022-07-29T06:41:38.664Z,1.40
2022-07-29T06:44:10.331Z,1.20
2022-07-29T06:46:37.674Z,1.30
2022-07-29T06:49:05.635Z,1.10
2022-07-29T06:51:33.111Z,1.50
2022-07-29T06:54:02.712Z,1.23
2022-07-29T06:56:39.759Z,1.23
2022-07-29T06:59:08.852Z,1.08
2022-07-29T07:01:40.826Z,1.02
2022-07-29T07:04:09.895Z,0.95
2022-07-29T07:06:38.082Z,1.20
2022-07-29T07:09:05.874Z,1.10
2022-07-29T07:11:33.071Z,1.10
2022-07-29T07:14:03.553Z,1.00
2022-07-29T07:16:32.585Z,1.33
2022-07-29T07:19:00.324Z,1.80
2022-07-29T07:21:30.258Z,1.10
2022-07-29T07:23:58.480Z,1.17
2022-07-29T07:26:26.276Z,1.10
2022-07-29T07:28:53.401Z,1.00
2022-07-29T07:31:21.193Z,0.90
2022-07-29T07:33:48.393Z,0.90
2022-07-29T07:36:15.654Z,1.10
2022-07-29T07:38:43.191Z,1.05
2022-07-29T07:41:10.322Z,1.52
2022-07-29T07:43:37.516Z,1.35
2022-07-29T07:46:04.838Z,1.23
2022-07-29T07:48:32.047Z,1.15
2022-07-29T07:50:59.812Z,0.90
2022-07-29T07:53:27.037Z,1.00
2022-07-29T07:56:09.789Z,0.85
2022-07-29T07:58:37.706Z,0.88
2022-07-29T08:01:04.811Z,0.85
2022-07-29T08:03:31.908Z,1.15
2022-07-29T08:06:00.079Z,0.77
2022-07-29T08:08:27.253Z,1.10
2022-07-29T08:10:54.327Z,1.00
2022-07-29T08:13:22.893Z,1.00
2022-07-29T08:15:58.900Z,1.20
2022-07-29T08:18:30.552Z,1.13
2022-07-29T08:20:58.451Z,0.90
2022-07-29T08:23:25.649Z,0.90
2022-07-29T08:25:54.785Z,1.10
2022-07-29T08:28:22.186Z,1.10
2022-07-29T08:30:53.605Z,1.08
2022-07-29T08:33:20.773Z,0.75
2022-07-29T08:35:48.176Z,1.10
2022-07-29T08:38:15.275Z,1.00
2022-07-29T08:40:42.419Z,1.10
2022-07-29T08:43:10.281Z,0.75
2022-07-29T08:45:47.644Z,0.90
2022-07-29T08:48:19.340Z,0.90
2022-07-29T08:50:48.270Z,0.98
2022-07-29T08:53:18.721Z,1.45
2022-07-29T08:55:48.433Z,0.65
2022-07-29T08:58:16.246Z,0.82
2022-07-29T09:00:51.374Z,0.90
2022-07-29T09:03:21.668Z,0.70
2022-07-29T09:05:49.459Z,1.00
2022-07-29T09:08:17.676Z,0.70
2022-07-29T09:10:45.365Z,1.20
2022-07-29T09:13:12.775Z,0.82
2022-07-29T09:15:39.936Z,1.00
2022-07-29T09:18:06.928Z,0.88
2022-07-29T09:20:52.561Z,1.27
2022-07-29T09:23:22.881Z,0.82
2022-07-29T09:25:51.728Z,0.73
2022-07-29T09:28:19.158Z,1.20
2022-07-29T09:30:59.348Z,0.93
2022-07-29T09:33:35.690Z,1.00
2022-07-29T09:36:10.374Z,1.00
2022-07-29T09:38:38.489Z,1.00
2022-07-29T09:41:09.083Z,1.00
2022-07-29T09:43:36.327Z,0.57
2022-07-29T09:46:14.749Z,0.90
2022-07-29T09:48:42.244Z,0.57
2022-07-29T09:51:24.263Z,0.85
2022-07-29T09:53:55.804Z,0.90
2022-07-29T09:56:42.992Z,0.75
2022-07-29T09:59:12.271Z,0.88
2022-07-29T10:01:39.404Z,1.00
2022-07-29T10:04:07.768Z,0.80
2022-07-29T10:06:34.811Z,0.95
2022-07-29T10:09:10.339Z,0.73
2022-07-29T10:11:56.206Z,0.85
2022-07-29T10:14:24.196Z,1.23
2022-07-29T10:16:51.847Z,1.00
2022-07-29T10:19:18.952Z,0.82
2022-07-29T10:21:46.412Z,1.00
2022-07-29T10:24:15.103Z,1.10
2022-07-29T10:26:43.237Z,0.57
2022-07-29T10:29:10.567Z,0.80
2022-07-29T10:31:57.330Z,0.80
2022-07-29T10:34:49.170Z,0.90
2022-07-29T10:37:36.030Z,0.77
2022-07-29T10:40:45.578Z,0.80
2022-07-29T10:43:37.596Z,0.88
2022-07-29T10:48:34.977Z,0.60
2022-07-29T10:51:05.154Z,1.05
2022-07-29T10:53:47.422Z,0.90
2022-07-29T10:56:28.510Z,1.10
2022-07-29T10:59:21.569Z,1.00
2022-07-29T11:01:53.404Z,1.23
2022-07-29T11:04:44.672Z,1.40
2022-07-29T11:07:15.172Z,1.35
2022-07-29T11:09:42.463Z,1.80
2022-07-29T11:12:52.259Z,1.30
2022-07-29T11:15:22.658Z,1.75
2022-07-29T11:17:55.256Z,1.13
2022-07-29T11:20:45.940Z,1.23
2022-07-29T11:23:33.478Z,0.90
2022-07-29T11:26:13.780Z,0.85
2022-07-29T11:28:55.658Z,0.75
2022-07-29T11:31:42.527Z,0.75
2022-07-29T11:34:33.333Z,0.70
2022-07-29T11:39:48.694Z,1.15
2022-07-29T11:42:32.347Z,0.80
2022-07-29T11:45:43.524Z,1.20
2022-07-29T11:48:28.955Z,0.82
2022-07-29T11:50:54.100Z,1.65
2022-07-29T11:53:22.260Z,1.33
2022-07-29T11:55:58.398Z,0.60
2022-07-29T11:58:26.515Z,0.60
2022-07-29T12:00:55.343Z,1.10
2022-07-29T12:03:34.858Z,1.00
2022-07-29T12:06:15.072Z,1.00
2022-07-29T12:08:44.367Z,0.82
2022-07-29T12:11:21.312Z,1.10
2022-07-29T12:13:50.309Z,0.80
2022-07-29T12:16:26.134Z,0.77
2022-07-29T12:19:02.236Z,0.93
2022-07-29T12:21:45.715Z,1.20
2022-07-29T12:24:20.325Z,1.17
2022-07-29T12:27:00.401Z,0.90
2022-07-29T12:29:35.531Z,0.82
2022-07-29T12:32:14.412Z,1.23
2022-07-29T12:34:46.722Z,1.92
2022-07-29T12:37:13.977Z,1.02
2022-07-29T12:39:49.267Z,1.20
2022-07-29T12:42:18.410Z,1.95
2022-07-29T12:44:47.582Z,1.58
2022-07-29T12:47:14.996Z,1.23
2022-07-29T12:49:45.457Z,1.05
2022-07-29T12:52:33.880Z,0.90
2022-07-29T12:55:02.319Z,0.90
2022-07-29T12:57:32.729Z,0.95
2022-07-29T13:00:14.956Z,0.80
2022-07-29T13:02:43.744Z,0.90
2022-07-29T13:05:12.464Z,0.80
2022-07-29T13:07:54.164Z,0.90
2022-07-29T13:10:24.333Z,1.33
2022-07-29T13:13:09.205Z,0.70
2022-07-29T13:15:38.256Z,0.70
2022-07-29T13:18:06.568Z,0.88
2022-07-29T13:20:33.838Z,0.73
2022-07-29T13:23:01.909Z,0.70
2022-07-29T13:25:33.050Z,0.80
2022-07-29T13:28:00.965Z,1.02
2022-07-29T13:30:28.109Z,0.82
2022-07-29T13:32:56.242Z,0.85
2022-07-29T13:35:23.258Z,0.98
2022-07-29T13:37:51.968Z,0.90
2022-07-29T13:40:19.629Z,1.00
2022-07-29T13:42:46.790Z,1.08
2022-07-29T13:45:14.161Z,1.27
2022-07-29T13:47:46.007Z,0.80
2022-07-29T13:50:16.559Z,1.00
2022-07-29T13:52:44.076Z,1.00
2022-07-29T13:55:11.102Z,0.98
2022-07-29T13:57:38.172Z,1.13
2022-07-29T14:00:05.698Z,1.30
2022-07-29T14:02:35.543Z,1.10
2022-07-29T14:05:07.647Z,1.23
2022-07-29T14:07:35.598Z,1.13
2022-07-29T14:10:03.497Z,0.95
2022-07-29T14:12:30.560Z,1.08
2022-07-29T14:14:57.882Z,0.88
2022-07-29T14:17:25.223Z,0.85
2022-07-29T14:19:52.224Z,0.98
2022-07-29T14:22:20.159Z,1.00
2022-07-29T14:24:50.219Z,1.40
2022-07-29T14:27:17.522Z,1.20
2022-07-29T14:29:44.868Z,1.20
2022-07-29T14:32:12.532Z,1.02
2022-07-29T14:34:40.672Z,0.88
2022-07-29T14:37:08.279Z,0.90
2022-07-29T14:39:42.557Z,0.77
2022-07-29T14:42:12.324Z,1.00
2022-07-29T14:44:42.509Z,1.30
2022-07-29T14:47:10.055Z,0.95
2022-07-29T14:49:37.064Z,1.25
2022-07-29T14:52:04.666Z,1.10
2022-07-29T14:54:31.933Z,1.02
2022-07-29T14:56:59.145Z,0.90
2022-07-29T14:59:27.300Z,1.08
2022-07-29T15:01:54.934Z,1.02
2022-07-29T15:04:22.268Z,1.20
2022-07-29T15:06:49.721Z,1.15
2022-07-29T15:09:16.979Z,1.70
2022-07-29T15:11:44.038Z,1.50
2022-07-29T15:14:12.022Z,1.60
2022-07-29T15:16:43.813Z,2.10
2022-07-29T15:19:14.297Z,1.38
2022-07-29T15:21:48.688Z,1.60
2022-07-29T15:24:17.917Z,1.77
2022-07-29T15:26:45.697Z,1.58
2022-07-29T15:29:13.122Z,1.20
2022-07-29T15:31:41.138Z,1.40
2022-07-29T15:34:08.607Z,1.80
2022-07-29T15:36:51.950Z,1.70
2022-07-29T15:39:22.193Z,1.52
2022-07-29T15:41:49.756Z,1.60
2022-07-29T15:44:16.864Z,2.38
2022-07-29T15:47:02.823Z,1.73
2022-07-29T15:49:47.243Z,2.15
2022-07-29T15:52:24.963Z,2.42
2022-07-29T15:54:55.667Z,3.00
2022-07-29T15:57:23.978Z,2.33
2022-07-29T15:59:52.084Z,2.53
2022-07-29T16:02:19.265Z,1.67
2022-07-29T16:04:46.446Z,1.63
2022-07-29T16:07:14.318Z,1.40
2022-07-29T16:09:42.191Z,1.80
2022-07-29T16:12:15.082Z,1.15
2022-07-29T16:14:45.843Z,2.83
2022-07-29T16:17:14.382Z,2.08
2022-07-29T16:19:43.922Z,1.50
2022-07-29T16:22:11.786Z,2.97
2022-07-29T16:24:39.377Z,1.40
2022-07-29T16:27:06.603Z,1.00
2022-07-29T16:29:33.752Z,1.35
2022-07-29T16:32:01.556Z,1.40
2022-07-29T16:34:29.762Z,1.08
2022-07-29T16:36:56.831Z,1.40
2022-07-29T16:39:23.858Z,1.85
2022-07-29T16:41:50.946Z,1.70
2022-07-29T16:44:18.020Z,1.17
2022-07-29T16:46:45.918Z,1.50
2022-07-29T16:49:16.975Z,2.17
2022-07-29T16:51:48.028Z,1.33
2022-07-29T16:54:15.289Z,1.10
2022-07-29T16:56:42.374Z,1.20
2022-07-29T16:59:09.368Z,1.20
2022-07-29T17:01:36.605Z,1.30
2022-07-29T17:04:06.510Z,1.27
2022-07-29T17:06:40.170Z,1.35
2022-07-29T17:09:09.450Z,1.38
2022-07-29T17:11:51.772Z,1.40
2022-07-29T17:14:24.063Z,1.35
2022-07-29T17:17:00.424Z,1.30
2022-07-29T17:19:30.858Z,1.88
2022-07-29T17:22:06.352Z,1.80
2022-07-29T17:24:38.323Z,1.45
2022-07-29T17:27:06.275Z,1.73
2022-07-29T17:29:34.978Z,1.95
2022-07-29T17:32:04.268Z,1.85
2022-07-29T17:34:42.783Z,2.42
2022-07-29T17:37:11.270Z,2.10
2022-07-29T17:39:41.455Z,1.65
2022-07-29T17:42:12.993Z,1.50
2022-07-29T17:44:40.628Z,1.33
2022-07-29T17:47:15.650Z,2.17
2022-07-29T17:49:45.462Z,1.25
2022-07-29T17:52:12.709Z,1.23
2022-07-29T17:54:40.258Z,1.55
2022-07-29T17:57:07.414Z,1.38
2022-07-29T17:59:34.420Z,1.50
2022-07-29T18:02:01.943Z,1.30
2022-07-29T18:04:31.051Z,1.42
2022-07-29T18:06:58.321Z,1.60
2022-07-29T18:09:25.808Z,1.42
2022-07-29T18:11:53.004Z,2.47
2022-07-29T18:14:20.002Z,2.08
2022-07-29T18:16:47.166Z,1.70
2022-07-29T18:19:14.454Z,2.00
2022-07-29T18:21:51.181Z,1.70
2022-07-29T18:24:23.949Z,2.05
2022-07-29T18:26:51.078Z,2.00
2022-07-29T18:29:18.096Z,2.30
2022-07-29T18:31:45.282Z,2.90
2022-07-29T18:34:12.447Z,2.13
2022-07-29T18:36:39.450Z,2.17
2022-07-29T18:39:06.569Z,2.13
2022-07-29T18:41:34.089Z,1.60
2022-07-29T18:44:01.163Z,2.05
2022-07-29T18:46:28.603Z,2.08
2022-07-29T18:48:57.386Z,2.20
2022-07-29T18:51:24.473Z,2.25
2022-07-29T18:53:52.576Z,2.55
2022-07-29T18:56:19.730Z,2.78
2022-07-29T18:58:46.871Z,2.53
2022-07-29T19:01:16.727Z,2.95
2022-07-29T19:03:44.136Z,3.38
2022-07-29T19:06:11.180Z,3.08
2022-07-29T19:08:38.367Z,2.42
2022-07-29T19:11:05.517Z,2.70
2022-07-29T19:13:33.684Z,2.72
2022-07-29T19:16:00.748Z,2.20
2022-07-29T19:18:27.872Z,2.17
2022-07-29T19:20:54.940Z,2.30
2022-07-29T19:23:22.553Z,1.75
2022-07-29T19:25:53.760Z,2.00
2022-07-29T19:28:22.352Z,1.88
2022-07-29T19:30:49.832Z,1.98
2022-07-29T19:38:15.092Z,2.25
2022-07-29T19:40:47.770Z,1.83
2022-07-29T19:43:50.504Z,1.73
2022-07-29T19:46:13.957Z,2.15
2022-07-29T19:48:57.740Z,1.60
2022-07-29T19:51:25.685Z,1.80
2022-07-29T19:53:52.745Z,1.48
2022-07-29T19:56:19.895Z,1.85
2022-07-29T19:58:46.884Z,2.30
2022-07-29T20:01:15.081Z,1.90
2022-07-29T20:03:42.429Z,2.60
2022-07-29T20:06:09.468Z,2.40
2022-07-29T20:08:37.138Z,3.17
2022-07-29T20:11:04.176Z,2.35
2022-07-29T20:13:33.286Z,2.53
2022-07-29T20:16:01.988Z,2.30
2022-07-29T20:18:29.293Z,2.03
2022-07-29T20:20:57.684Z,2.28
2022-07-29T20:23:25.354Z,2.03
2022-07-29T20:25:52.796Z,2.47
2022-07-29T20:28:22.385Z,2.22
2022-07-29T20:30:50.014Z,2.13
2022-07-29T20:33:17.177Z,2.40
2022-07-29T20:35:44.300Z,2.28
2022-07-29T20:38:13.947Z,2.38
2022-07-29T20:40:44.902Z,2.25
2022-07-29T20:43:12.092Z,2.70
2022-07-29T20:45:39.660Z,2.15
2022-07-29T20:48:08.341Z,2.63
2022-07-29T20:50:35.571Z,1.83
2022-07-29T20:53:02.542Z,2.00
2022-07-29T20:55:29.632Z,2.28
2022-07-29T20:57:56.667Z,2.00
2022-07-29T21:00:23.723Z,1.95
2022-07-29T21:02:50.788Z,1.85
2022-07-29T21:05:18.075Z,1.63
2022-07-29T21:07:45.255Z,1.60
2022-07-29T21:10:14.357Z,1.38
2022-07-29T21:12:42.141Z,1.65
2022-07-29T21:15:13.537Z,1.50
2022-07-29T21:17:46.702Z,1.77
2022-07-29T21:20:18.951Z,1.40
2022-07-29T21:22:46.102Z,1.42
2022-07-29T21:25:14.085Z,1.60
2022-07-29T21:28:07.397Z,1.42
2022-07-29T21:30:36.060Z,1.30
2022-07-29T21:33:06.160Z,1.20
2022-07-29T21:36:01.780Z,1.50
2022-07-29T21:38:20.786Z,1.67
2022-07-29T21:40:50.184Z,1.48
2022-07-29T21:43:18.849Z,1.65
2022-07-29T21:45:50.373Z,1.15
2022-07-29T21:48:18.906Z,1.23
2022-07-29T21:50:47.686Z,1.73
2022-07-29T21:53:15.947Z,1.27
2022-07-29T21:55:43.520Z,2.03
2022-07-29T21:58:15.480Z,1.60
2022-07-29T22:00:43.103Z,1.30
2022-07-29T22:03:10.376Z,1.80
2022-07-29T22:05:38.024Z,1.33
2022-07-29T22:08:06.047Z,1.23
2022-07-29T22:10:33.703Z,1.63
2022-07-29T22:13:01.802Z,1.42
2022-07-29T22:15:30.265Z,1.60
2022-07-29T22:18:28.431Z,1.45
2022-07-29T22:20:55.840Z,1.40
2022-07-29T22:23:22.808Z,2.42
2022-07-29T22:25:50.013Z,1.63
2022-07-29T22:28:17.973Z,1.95
2022-07-29T22:30:45.313Z,1.50
2022-07-29T22:33:17.909Z,1.65
2022-07-29T22:35:48.557Z,1.60
2022-07-29T22:38:18.242Z,2.13
2022-07-29T22:40:48.703Z,1.50
2022-07-29T22:43:17.802Z,1.60
2022-07-29T22:45:45.058Z,1.40
2022-07-29T22:48:12.263Z,1.50
2022-07-29T22:50:39.428Z,1.80
2022-07-29T22:53:06.742Z,1.40
2022-07-29T22:55:33.783Z,1.30
2022-07-29T22:58:01.448Z,1.40
2022-07-29T23:00:28.848Z,1.60
2022-07-29T23:02:58.186Z,2.00
2022-07-29T23:05:25.425Z,1.90
2022-07-29T23:07:52.555Z,1.50
2022-07-29T23:10:23.122Z,1.90
2022-07-29T23:12:52.141Z,1.88
2022-07-29T23:15:21.641Z,1.67
2022-07-29T23:17:53.442Z,2.30
2022-07-29T23:20:20.574Z,2.05
2022-07-29T23:22:51.922Z,1.70
2022-07-29T23:25:19.131Z,1.90
2022-07-29T23:27:51.518Z,1.83
2022-07-29T23:30:23.204Z,1.65
2022-07-29T23:32:55.793Z,1.80
2022-07-29T23:35:32.967Z,1.88
2022-07-29T23:38:00.175Z,1.92
2022-07-29T23:40:27.414Z,1.90
2022-07-29T23:43:02.638Z,1.83
2022-07-29T23:45:42.520Z,2.03
2022-07-29T23:48:14.057Z,2.13
2022-07-29T23:50:50.257Z,1.77
2022-07-29T23:53:24.917Z,1.90
2022-07-29T23:56:12.218Z,1.80
2022-07-29T23:58:56.908Z,1.55
